createdAt,value
2022-11-10T00:00:16.091Z,8.37
2022-11-10T00:01:12.777Z,8.31
2022-11-10T00:02:09.501Z,8.00
2022-11-10T00:03:10.461Z,7.73
2022-11-10T00:04:07.142Z,7.54
2022-11-10T00:05:04.046Z,8.59
2022-11-10T00:06:03.746Z,8.24
2022-11-10T00:07:00.459Z,8.45
2022-11-10T00:07:57.546Z,8.51
2022-11-10T00:08:54.269Z,8.41
2022-11-10T00:09:52.682Z,8.45
2022-11-10T00:10:59.786Z,7.55
2022-11-10T00:11:56.491Z,8.33
2022-11-10T00:12:53.595Z,8.60
2022-11-10T00:14:08.704Z,8.91
2022-11-10T00:15:24.456Z,8.45
2022-11-10T00:16:39.733Z,8.05
2022-11-10T00:17:37.276Z,8.20
2022-11-10T00:18:33.994Z,8.38
2022-11-10T00:19:35.236Z,8.00
2022-11-10T00:20:32.572Z,8.34
2022-11-10T00:21:48.040Z,8.64
2022-11-10T00:22:44.880Z,8.45
2022-11-10T00:23:41.917Z,8.73
2022-11-10T00:24:41.123Z,8.88
2022-11-10T00:25:37.815Z,8.89
2022-11-10T00:26:34.509Z,8.85
2022-11-10T00:27:33.421Z,8.87
2022-11-10T00:28:32.154Z,8.78
2022-11-10T00:29:28.835Z,8.89
2022-11-10T00:30:26.439Z,7.75
2022-11-10T00:31:23.130Z,8.86
2022-11-10T00:32:20.116Z,8.10
2022-11-10T00:33:16.791Z,8.48
2022-11-10T00:34:16.545Z,7.44
2022-11-10T00:35:13.249Z,8.46
2022-11-10T00:36:10.392Z,8.37
2022-11-10T00:37:07.166Z,7.80
2022-11-10T00:38:03.845Z,8.39
2022-11-10T00:39:00.635Z,8.59
2022-11-10T00:39:57.339Z,8.16
2022-11-10T00:40:54.053Z,7.94
2022-11-10T00:41:50.728Z,8.71
2022-11-10T00:42:47.407Z,8.38
2022-11-10T00:43:44.090Z,8.58
2022-11-10T00:44:41.020Z,8.49
2022-11-10T00:45:41.926Z,8.65
2022-11-10T00:46:38.607Z,8.64
2022-11-10T00:47:35.334Z,8.66
2022-11-10T00:48:32.058Z,8.46
2022-11-10T00:49:28.834Z,8.48
2022-11-10T00:50:25.530Z,8.67
2022-11-10T00:51:27.906Z,8.54
2022-11-10T00:52:24.635Z,7.91
2022-11-10T00:53:21.659Z,8.40
2022-11-10T00:54:18.725Z,7.50
2022-11-10T00:55:15.457Z,8.19
2022-11-10T00:56:12.149Z,8.28
2022-11-10T00:57:08.874Z,8.28
2022-11-10T00:58:05.548Z,8.57
2022-11-10T00:59:02.234Z,8.49
2022-11-10T00:59:58.926Z,8.30
2022-11-10T01:01:04.054Z,8.32
2022-11-10T01:02:00.781Z,8.26
2022-11-10T01:02:57.696Z,8.07
2022-11-10T01:03:55.544Z,8.11
2022-11-10T01:04:52.242Z,8.26
2022-11-10T01:05:48.980Z,8.18
2022-11-10T01:06:48.034Z,7.91
2022-11-10T01:07:44.804Z,8.05
2022-11-10T01:08:42.950Z,8.07
2022-11-10T01:09:39.686Z,8.13
2022-11-10T01:10:36.620Z,8.29
2022-11-10T01:11:33.311Z,8.58
2022-11-10T01:12:30.810Z,8.17
2022-11-10T01:13:27.511Z,8.17
2022-11-10T01:14:24.230Z,8.08
2022-11-10T01:15:27.049Z,7.89
2022-11-10T01:16:28.190Z,8.12
2022-11-10T01:17:24.858Z,7.27
2022-11-10T01:18:21.518Z,8.34
2022-11-10T01:19:18.222Z,8.37
2022-11-10T01:20:15.018Z,7.58
2022-11-10T01:21:11.715Z,8.09
2022-11-10T01:22:08.400Z,8.53
2022-11-10T01:23:05.145Z,8.07
2022-11-10T01:24:02.598Z,8.46
2022-11-10T01:24:59.310Z,8.18
2022-11-10T01:26:02.317Z,8.11
2022-11-10T01:26:59.053Z,8.06
2022-11-10T01:27:55.740Z,8.00
2022-11-10T01:28:52.457Z,8.15
2022-11-10T01:29:49.247Z,8.38
2022-11-10T01:30:45.922Z,8.43
2022-11-10T01:31:42.679Z,7.96
2022-11-10T01:32:39.388Z,8.45
2022-11-10T01:33:36.734Z,8.18
2022-11-10T01:34:33.466Z,8.01
2022-11-10T01:35:30.147Z,7.59
2022-11-10T01:36:26.960Z,8.22
2022-11-10T01:37:24.063Z,8.11
2022-11-10T01:38:22.553Z,7.93
2022-11-10T01:39:19.357Z,7.77
2022-11-10T01:40:16.133Z,7.97
2022-11-10T01:41:14.854Z,8.10
2022-11-10T01:42:12.803Z,7.86
2022-11-10T01:43:11.834Z,8.35
2022-11-10T01:44:26.871Z,8.00
2022-11-10T01:45:23.505Z,8.34
2022-11-10T01:46:20.248Z,8.32
2022-11-10T01:47:16.936Z,7.33
2022-11-10T01:48:23.271Z,7.93
2022-11-10T01:49:25.011Z,7.91
2022-11-10T01:50:26.223Z,8.01
2022-11-10T01:51:42.349Z,8.01
2022-11-10T01:52:42.145Z,7.91
2022-11-10T01:53:45.056Z,7.56
2022-11-10T01:54:47.459Z,7.82
2022-11-10T01:55:48.397Z,7.27
2022-11-10T01:56:50.608Z,7.76
2022-11-10T01:57:47.557Z,7.93
2022-11-10T01:58:53.576Z,7.80
2022-11-10T01:59:50.700Z,7.60
2022-11-10T02:00:47.580Z,8.03
2022-11-10T02:01:48.877Z,7.97
2022-11-10T02:02:59.063Z,7.69
2022-11-10T02:04:17.251Z,8.05
2022-11-10T02:05:14.003Z,7.94
2022-11-10T02:06:11.924Z,7.93
2022-11-10T02:07:11.115Z,7.89
2022-11-10T02:08:08.620Z,8.07
2022-11-10T02:09:05.316Z,8.08
2022-11-10T02:10:03.349Z,7.99
2022-11-10T02:11:00.030Z,6.88
2022-11-10T02:11:57.933Z,7.87
2022-11-10T02:12:54.917Z,7.56
2022-11-10T02:13:53.261Z,7.51
2022-11-10T02:14:49.987Z,8.00
2022-11-10T02:15:46.867Z,7.85
2022-11-10T02:16:43.685Z,8.08
2022-11-10T02:17:42.197Z,6.74
2022-11-10T02:18:39.039Z,8.14
2022-11-10T02:19:42.224Z,7.70
2022-11-10T02:20:39.024Z,8.16
2022-11-10T02:21:35.709Z,8.17
2022-11-10T02:22:32.841Z,8.27
2022-11-10T02:23:29.538Z,8.29
2022-11-10T02:24:26.234Z,8.43
2022-11-10T02:25:25.491Z,8.24
2022-11-10T02:26:27.527Z,8.16
2022-11-10T02:27:24.434Z,7.18
2022-11-10T02:28:21.148Z,8.17
2022-11-10T02:29:17.826Z,8.34
2022-11-10T02:30:15.585Z,7.78
2022-11-10T02:31:12.936Z,8.35
2022-11-10T02:32:09.661Z,8.07
2022-11-10T02:33:06.391Z,8.87
2022-11-10T02:34:03.141Z,8.61
2022-11-10T02:34:59.826Z,7.95
2022-11-10T02:35:56.810Z,8.05
2022-11-10T02:36:53.515Z,8.48
2022-11-10T02:37:50.202Z,8.64
2022-11-10T02:38:46.901Z,8.81
2022-11-10T02:39:43.655Z,8.06
2022-11-10T02:40:40.638Z,8.76
2022-11-10T02:41:37.362Z,8.55
2022-11-10T02:42:34.102Z,8.49
2022-11-10T02:43:31.057Z,8.44
2022-11-10T02:44:28.277Z,8.67
2022-11-10T02:45:24.962Z,8.13
2022-11-10T02:46:21.691Z,8.34
2022-11-10T02:47:18.605Z,8.20
2022-11-10T02:48:16.550Z,8.41
2022-11-10T02:49:13.314Z,8.70
2022-11-10T02:50:10.293Z,8.74
2022-11-10T02:51:07.142Z,8.47
2022-11-10T02:52:03.996Z,8.68
2022-11-10T02:53:00.679Z,8.52
2022-11-10T02:53:57.406Z,9.07
2022-11-10T02:54:54.114Z,9.09
2022-11-10T02:55:50.827Z,8.65
2022-11-10T02:56:48.105Z,8.93
2022-11-10T02:57:44.856Z,9.17
2022-11-10T02:58:41.650Z,9.23
2022-11-10T02:59:38.400Z,9.40
2022-11-10T03:00:35.102Z,9.00
2022-11-10T03:01:31.861Z,8.41
2022-11-10T03:02:32.245Z,8.72
2022-11-10T03:03:29.177Z,8.72
2022-11-10T03:04:25.877Z,8.39
2022-11-10T03:05:22.571Z,8.07
2022-11-10T03:06:19.329Z,8.57
2022-11-10T03:07:16.058Z,8.26
2022-11-10T03:08:12.798Z,8.79
2022-11-10T03:09:09.566Z,8.20
2022-11-10T03:10:07.415Z,9.18
2022-11-10T03:11:04.372Z,8.83
2022-11-10T03:12:01.061Z,8.64
2022-11-10T03:13:00.799Z,8.71
2022-11-10T03:14:02.288Z,8.82
2022-11-10T03:14:59.336Z,8.32
2022-11-10T03:15:56.023Z,8.24
2022-11-10T03:16:53.720Z,8.63
2022-11-10T03:17:50.964Z,8.95
2022-11-10T03:18:47.650Z,9.13
2022-11-10T03:19:44.429Z,8.13
2022-11-10T03:20:41.231Z,9.19
2022-11-10T03:21:37.937Z,8.76
2022-11-10T03:22:35.163Z,7.87
2022-11-10T03:23:33.470Z,8.27
2022-11-10T03:24:30.144Z,8.69
2022-11-10T03:25:26.875Z,8.89
2022-11-10T03:26:23.564Z,8.63
2022-11-10T03:27:20.250Z,8.55
2022-11-10T03:28:16.949Z,8.26
2022-11-10T03:29:13.657Z,8.56
2022-11-10T03:30:10.841Z,7.79
2022-11-10T03:31:07.524Z,8.82
2022-11-10T03:32:04.244Z,8.26
2022-11-10T03:33:01.121Z,8.75
2022-11-10T03:33:57.825Z,9.02
2022-11-10T03:34:54.537Z,9.18
2022-11-10T03:35:51.248Z,8.80
2022-11-10T03:36:47.937Z,8.60
2022-11-10T03:37:44.869Z,8.64
2022-11-10T03:38:41.639Z,8.18
2022-11-10T03:39:39.615Z,8.40
2022-11-10T03:40:50.799Z,7.44
2022-11-10T03:41:53.057Z,8.56
2022-11-10T03:42:49.843Z,8.14
2022-11-10T03:43:46.750Z,7.41
2022-11-10T03:44:43.451Z,7.46
2022-11-10T03:45:40.153Z,8.35
2022-11-10T03:46:36.849Z,8.38
2022-11-10T03:47:33.525Z,8.27
2022-11-10T03:48:30.271Z,8.38
2022-11-10T03:49:27.003Z,8.44
2022-11-10T03:50:23.697Z,8.36
2022-11-10T03:51:20.834Z,8.33
2022-11-10T03:52:18.164Z,8.28
2022-11-10T03:53:15.072Z,8.47
2022-11-10T03:54:11.872Z,8.04
2022-11-10T03:55:14.943Z,8.77
2022-11-10T03:56:12.377Z,9.02
2022-11-10T03:57:09.092Z,9.25
2022-11-10T03:58:05.804Z,9.39
2022-11-10T03:59:02.595Z,9.05
2022-11-10T03:59:59.330Z,9.21
2022-11-10T04:00:56.337Z,9.40
2022-11-10T04:01:53.042Z,9.25
2022-11-10T04:02:49.746Z,9.20
2022-11-10T04:03:51.233Z,9.29
2022-11-10T04:05:06.762Z,8.68
2022-11-10T04:06:22.393Z,8.46
2022-11-10T04:07:37.945Z,8.88
2022-11-10T04:08:53.335Z,8.81
2022-11-10T04:09:50.034Z,8.60
2022-11-10T04:10:47.076Z,8.38
2022-11-10T04:12:02.156Z,8.65
2022-11-10T04:13:17.500Z,8.89
2022-11-10T04:14:33.993Z,9.23
2022-11-10T04:15:42.304Z,9.10
2022-11-10T04:16:38.989Z,8.99
2022-11-10T04:17:35.674Z,9.12
2022-11-10T04:18:32.426Z,8.90
2022-11-10T04:19:29.908Z,8.94
2022-11-10T04:20:26.579Z,8.68
2022-11-10T04:21:23.259Z,8.55
2022-11-10T04:22:39.943Z,7.67
2022-11-10T04:23:36.639Z,8.37
2022-11-10T04:24:33.326Z,8.47
2022-11-10T04:25:30.138Z,8.02
2022-11-10T04:26:29.417Z,8.60
2022-11-10T04:27:26.126Z,7.37
2022-11-10T04:28:22.847Z,8.79
2022-11-10T04:29:20.432Z,8.82
2022-11-10T04:30:17.301Z,8.52
2022-11-10T04:31:15.353Z,8.66
2022-11-10T04:32:12.043Z,8.82
2022-11-10T04:33:08.808Z,8.80
2022-11-10T04:34:10.127Z,9.07
2022-11-10T04:35:07.114Z,8.95
2022-11-10T04:36:04.843Z,9.13
2022-11-10T04:37:01.516Z,8.83
2022-11-10T04:37:58.199Z,8.90
2022-11-10T04:38:55.830Z,8.82
2022-11-10T04:39:52.530Z,8.68
2022-11-10T04:40:49.214Z,8.98
2022-11-10T04:41:45.967Z,9.14
2022-11-10T04:42:42.654Z,9.28
2022-11-10T04:43:39.454Z,8.78
2022-11-10T04:44:36.102Z,7.95
2022-11-10T04:45:33.805Z,8.21
2022-11-10T04:46:36.822Z,9.22
2022-11-10T04:47:33.497Z,8.82
2022-11-10T04:48:31.709Z,9.00
2022-11-10T04:49:28.394Z,8.48
2022-11-10T04:50:25.116Z,8.65
2022-11-10T04:51:24.962Z,8.36
2022-11-10T04:52:21.733Z,7.36
2022-11-10T04:53:19.556Z,8.88
2022-11-10T04:54:16.563Z,8.54
2022-11-10T04:55:13.276Z,8.77
2022-11-10T04:56:17.825Z,8.55
2022-11-10T04:57:14.676Z,9.13
2022-11-10T04:58:13.166Z,8.13
2022-11-10T04:59:09.884Z,8.66
2022-11-10T05:00:07.576Z,8.63
2022-11-10T05:01:04.310Z,8.30
2022-11-10T05:02:01.050Z,8.68
2022-11-10T05:02:59.978Z,8.59
2022-11-10T05:03:56.734Z,8.97
2022-11-10T05:04:53.410Z,8.58
2022-11-10T05:05:50.318Z,7.73
2022-11-10T05:06:47.053Z,8.68
2022-11-10T05:07:47.101Z,8.69
2022-11-10T05:08:44.404Z,8.03
2022-11-10T05:09:41.088Z,8.08
2022-11-10T05:10:38.544Z,9.18
2022-11-10T05:11:35.394Z,9.03
2022-11-10T05:12:32.142Z,8.76
2022-11-10T05:13:29.002Z,9.23
2022-11-10T05:14:25.709Z,8.91
2022-11-10T05:15:23.214Z,8.88
2022-11-10T05:16:19.920Z,8.77
2022-11-10T05:17:16.610Z,9.24
2022-11-10T05:18:13.327Z,8.66
2022-11-10T05:19:10.050Z,9.34
2022-11-10T05:20:07.479Z,9.26
2022-11-10T05:21:04.459Z,9.36
2022-11-10T05:22:01.303Z,9.26
2022-11-10T05:23:16.218Z,9.13
2022-11-10T05:24:12.874Z,9.38
2022-11-10T05:25:09.554Z,8.80
2022-11-10T05:26:15.459Z,9.24
2022-11-10T05:27:12.168Z,9.64
2022-11-10T05:28:11.879Z,9.28
2022-11-10T05:29:08.609Z,9.62
2022-11-10T05:30:05.864Z,9.68
2022-11-10T05:31:03.424Z,9.63
2022-11-10T05:32:00.415Z,9.44
2022-11-10T05:32:57.198Z,9.35
2022-11-10T05:33:53.904Z,9.24
2022-11-10T05:34:50.774Z,9.06
2022-11-10T05:35:49.964Z,9.12
2022-11-10T05:36:46.802Z,8.78
2022-11-10T05:37:43.494Z,9.34
2022-11-10T05:38:43.522Z,9.40
2022-11-10T05:39:40.487Z,9.43
2022-11-10T05:40:37.219Z,8.88
2022-11-10T05:41:33.915Z,8.61
2022-11-10T05:42:30.637Z,8.67
2022-11-10T05:43:27.395Z,9.03
2022-11-10T05:44:24.131Z,8.47
2022-11-10T05:45:23.790Z,9.01
2022-11-10T05:46:20.464Z,8.77
2022-11-10T05:47:17.157Z,9.21
2022-11-10T05:48:13.851Z,9.19
2022-11-10T05:49:10.530Z,9.24
2022-11-10T05:50:08.731Z,9.45
2022-11-10T05:51:06.830Z,9.18
2022-11-10T05:52:03.908Z,9.17
2022-11-10T05:53:00.650Z,9.19
2022-11-10T05:53:57.345Z,9.19
2022-11-10T05:54:55.520Z,9.02
2022-11-10T05:55:52.505Z,8.78
2022-11-10T05:56:49.174Z,9.36
2022-11-10T05:57:47.756Z,9.36
2022-11-10T05:58:44.469Z,8.22
2022-11-10T05:59:41.173Z,8.16
2022-11-10T06:00:37.969Z,9.27
2022-11-10T06:01:34.657Z,8.65
2022-11-10T06:02:31.350Z,8.18
2022-11-10T06:03:28.305Z,9.30
2022-11-10T06:04:25.128Z,8.79
2022-11-10T06:05:24.572Z,9.07
2022-11-10T06:06:23.589Z,8.88
2022-11-10T06:07:20.376Z,8.73
2022-11-10T06:08:17.914Z,9.00
2022-11-10T06:09:14.697Z,9.12
2022-11-10T06:10:11.389Z,9.29
2022-11-10T06:11:08.074Z,9.43
2022-11-10T06:12:04.953Z,9.31
2022-11-10T06:13:02.440Z,9.47
2022-11-10T06:14:00.905Z,9.53
2022-11-10T06:14:58.269Z,9.08
2022-11-10T06:15:54.969Z,9.56
2022-11-10T06:16:51.660Z,9.53
2022-11-10T06:17:48.540Z,9.53
2022-11-10T06:18:45.238Z,9.53
2022-11-10T06:19:41.982Z,9.84
2022-11-10T06:20:38.726Z,9.35
2022-11-10T06:21:35.409Z,9.55
2022-11-10T06:22:32.113Z,9.39
2022-11-10T06:23:30.107Z,9.99
2022-11-10T06:24:26.816Z,9.13
2022-11-10T06:25:23.493Z,9.96
2022-11-10T06:26:20.260Z,9.52
2022-11-10T06:27:16.979Z,9.79
2022-11-10T06:28:15.007Z,10.04
2022-11-10T06:29:11.757Z,9.71
2022-11-10T06:30:09.395Z,9.67
2022-11-10T06:31:06.080Z,10.20
2022-11-10T06:32:02.812Z,9.42
2022-11-10T06:32:59.595Z,9.51
2022-11-10T06:33:56.383Z,9.46
2022-11-10T06:34:57.834Z,8.82
2022-11-10T06:35:56.954Z,9.98
2022-11-10T06:36:53.670Z,9.99
2022-11-10T06:38:11.772Z,10.19
2022-11-10T06:39:09.598Z,10.29
2022-11-10T06:40:08.249Z,9.93
2022-11-10T06:41:05.068Z,9.69
2022-11-10T06:42:01.775Z,10.01
2022-11-10T06:42:59.184Z,10.24
2022-11-10T06:43:56.190Z,9.87
2022-11-10T06:44:52.897Z,10.01
2022-11-10T06:45:49.737Z,10.06
2022-11-10T06:46:46.410Z,10.25
2022-11-10T06:47:43.180Z,10.43
2022-11-10T06:48:40.300Z,10.36
2022-11-10T06:49:37.018Z,10.23
2022-11-10T06:50:34.322Z,10.06
2022-11-10T06:51:31.064Z,10.65
2022-11-10T06:52:27.816Z,10.85
2022-11-10T06:53:27.180Z,10.78
2022-11-10T06:54:24.056Z,10.74
2022-11-10T06:55:20.765Z,10.61
2022-11-10T06:56:17.463Z,10.22
2022-11-10T06:57:14.158Z,10.40
2022-11-10T06:58:11.166Z,10.44
2022-11-10T06:59:07.861Z,10.91
2022-11-10T07:00:05.545Z,10.36
2022-11-10T07:01:02.352Z,10.99
2022-11-10T07:01:59.336Z,11.27
2022-11-10T07:03:04.138Z,10.86
2022-11-10T07:04:18.740Z,10.74
2022-11-10T07:05:16.777Z,10.63
2022-11-10T07:06:13.478Z,10.85
2022-11-10T07:07:11.732Z,10.91
2022-11-10T07:08:15.904Z,11.02
2022-11-10T07:09:12.583Z,11.06
2022-11-10T07:10:09.429Z,10.81
2022-11-10T07:11:06.131Z,10.36
2022-11-10T07:12:02.885Z,10.02
2022-11-10T07:13:01.316Z,11.11
2022-11-10T07:13:58.002Z,10.97
2022-11-10T07:14:54.666Z,10.90
2022-11-10T07:15:52.366Z,10.82
2022-11-10T07:16:49.066Z,10.97
2022-11-10T07:17:45.784Z,10.32
2022-11-10T07:18:42.620Z,10.74
2022-11-10T07:19:39.291Z,10.57
2022-11-10T07:20:36.114Z,10.87
2022-11-10T07:21:32.818Z,10.14
2022-11-10T07:22:29.551Z,10.74
2022-11-10T07:23:26.176Z,10.87
2022-11-10T07:24:22.893Z,10.81
2022-11-10T07:25:19.610Z,10.52
2022-11-10T07:26:16.342Z,10.30
2022-11-10T07:27:13.062Z,10.31
2022-11-10T07:28:11.017Z,10.70
2022-11-10T07:29:07.756Z,10.05
2022-11-10T07:30:06.043Z,10.79
2022-11-10T07:31:03.255Z,8.88
2022-11-10T07:31:59.988Z,10.41
2022-11-10T07:33:14.426Z,10.26
2022-11-10T07:34:11.251Z,9.37
2022-11-10T07:35:08.330Z,10.45
2022-11-10T07:36:05.626Z,10.63
2022-11-10T07:37:02.354Z,10.78
2022-11-10T07:38:03.340Z,10.43
2022-11-10T07:39:00.435Z,10.00
2022-11-10T07:39:57.092Z,10.97
2022-11-10T07:40:54.544Z,10.57
2022-11-10T07:41:52.670Z,11.16
2022-11-10T07:42:49.820Z,11.26
2022-11-10T07:43:46.527Z,11.42
2022-11-10T07:44:43.237Z,11.36
2022-11-10T07:45:40.121Z,11.37
2022-11-10T07:46:36.895Z,10.71
2022-11-10T07:47:33.615Z,10.83
2022-11-10T07:48:30.333Z,11.48
2022-11-10T07:49:26.989Z,11.59
2022-11-10T07:50:23.721Z,11.58
2022-11-10T07:51:20.429Z,11.69
2022-11-10T07:52:17.151Z,11.38
2022-11-10T07:53:22.630Z,11.43
2022-11-10T07:54:19.598Z,10.55
2022-11-10T07:55:16.349Z,11.37
2022-11-10T07:56:14.187Z,11.37
2022-11-10T07:57:10.896Z,10.32
2022-11-10T07:58:08.456Z,10.96
2022-11-10T07:59:05.166Z,11.26
2022-11-10T08:00:02.238Z,11.61
2022-11-10T08:00:58.937Z,11.33
2022-11-10T08:01:55.656Z,11.64
2022-11-10T08:02:52.495Z,11.42
2022-11-10T08:03:49.204Z,11.03
2022-11-10T08:04:45.922Z,11.37
2022-11-10T08:05:43.385Z,11.61
2022-11-10T08:06:40.343Z,10.80
2022-11-10T08:07:37.302Z,11.91
2022-11-10T08:08:34.103Z,11.47
2022-11-10T08:09:30.822Z,11.59
2022-11-10T08:10:28.972Z,11.20
2022-11-10T08:11:25.724Z,11.48
2022-11-10T08:12:22.409Z,11.47
2022-11-10T08:13:19.261Z,11.30
2022-11-10T08:14:16.042Z,11.98
2022-11-10T08:15:12.732Z,11.90
2022-11-10T08:16:09.791Z,11.32
2022-11-10T08:17:06.593Z,11.88
2022-11-10T08:18:08.033Z,11.96
2022-11-10T08:19:04.975Z,11.25
2022-11-10T08:20:01.756Z,12.07
2022-11-10T08:21:02.045Z,11.65
2022-11-10T08:21:58.736Z,12.25
2022-11-10T08:23:05.046Z,11.86
2022-11-10T08:24:01.754Z,12.24
2022-11-10T08:24:58.461Z,12.12
2022-11-10T08:25:59.732Z,12.17
2022-11-10T08:26:56.510Z,12.16
2022-11-10T08:27:58.481Z,11.14
2022-11-10T08:28:55.343Z,11.91
2022-11-10T08:29:52.044Z,11.74
2022-11-10T08:30:49.380Z,11.58
2022-11-10T08:31:46.057Z,11.99
2022-11-10T08:32:42.744Z,11.90
2022-11-10T08:33:39.505Z,11.91
2022-11-10T08:34:36.218Z,12.29
2022-11-10T08:35:36.859Z,11.72
2022-11-10T08:36:33.589Z,12.17
2022-11-10T08:37:30.489Z,12.19
2022-11-10T08:38:27.201Z,12.09
2022-11-10T08:39:38.085Z,11.64
2022-11-10T08:40:35.325Z,12.01
2022-11-10T08:41:32.058Z,11.97
2022-11-10T08:42:28.766Z,11.31
2022-11-10T08:43:25.752Z,12.21
2022-11-10T08:44:22.999Z,12.46
2022-11-10T08:45:19.729Z,12.72
2022-11-10T08:46:16.547Z,12.43
2022-11-10T08:47:13.332Z,12.29
2022-11-10T08:48:17.269Z,11.67
2022-11-10T08:49:13.973Z,12.19
2022-11-10T08:50:11.085Z,12.30
2022-11-10T08:51:07.866Z,12.21
2022-11-10T08:52:04.606Z,12.68
2022-11-10T08:53:06.469Z,12.28
2022-11-10T08:54:03.184Z,9.29
2022-11-10T08:54:59.969Z,11.84
2022-11-10T08:56:00.140Z,12.36
2022-11-10T08:56:58.749Z,12.35
2022-11-10T08:57:59.964Z,12.42
2022-11-10T08:58:56.750Z,11.89
2022-11-10T08:59:53.465Z,12.74
2022-11-10T09:00:51.296Z,12.55
2022-11-10T09:01:48.014Z,12.84
2022-11-10T09:02:44.797Z,12.53
2022-11-10T09:03:41.618Z,12.97
2022-11-10T09:04:38.396Z,12.86
2022-11-10T09:05:36.301Z,12.61
2022-11-10T09:06:33.098Z,12.15
2022-11-10T09:07:31.398Z,12.62
2022-11-10T09:08:28.251Z,12.67
2022-11-10T09:09:26.569Z,13.02
2022-11-10T09:10:23.332Z,13.16
2022-11-10T09:11:20.052Z,13.11
2022-11-10T09:12:16.785Z,12.44
2022-11-10T09:13:15.913Z,12.94
2022-11-10T09:14:12.649Z,13.20
2022-11-10T09:15:11.340Z,12.79
2022-11-10T09:16:08.478Z,13.03
2022-11-10T09:17:05.171Z,13.00
2022-11-10T09:18:04.428Z,12.88
2022-11-10T09:19:01.144Z,13.00
2022-11-10T09:19:57.865Z,13.33
2022-11-10T09:20:54.677Z,12.97
2022-11-10T09:21:51.430Z,13.03
2022-11-10T09:22:48.146Z,13.26
2022-11-10T09:23:44.815Z,13.40
2022-11-10T09:24:41.592Z,13.50
2022-11-10T09:25:38.771Z,13.19
2022-11-10T09:26:35.473Z,13.49
2022-11-10T09:27:36.257Z,13.16
2022-11-10T09:28:33.460Z,13.43
2022-11-10T09:29:30.195Z,13.59
2022-11-10T09:30:26.980Z,13.17
2022-11-10T09:31:23.720Z,13.36
2022-11-10T09:32:20.405Z,13.32
2022-11-10T09:33:17.895Z,13.37
2022-11-10T09:34:14.663Z,13.53
2022-11-10T09:35:11.362Z,12.68
2022-11-10T09:36:08.259Z,13.36
2022-11-10T09:37:04.997Z,12.78
2022-11-10T09:38:01.705Z,13.29
2022-11-10T09:38:58.375Z,13.33
2022-11-10T09:39:55.874Z,12.48
2022-11-10T09:41:11.336Z,13.63
2022-11-10T09:42:28.116Z,12.73
2022-11-10T09:43:42.391Z,13.48
2022-11-10T09:44:52.042Z,13.10
2022-11-10T09:45:54.817Z,13.26
2022-11-10T09:47:42.269Z,13.43
2022-11-10T09:48:45.715Z,13.21
2022-11-10T09:49:56.620Z,13.22
2022-11-10T09:51:00.738Z,13.41
2022-11-10T09:51:59.720Z,13.79
2022-11-10T09:52:58.977Z,12.73
2022-11-10T09:54:21.056Z,13.83
2022-11-10T09:55:37.637Z,13.95
2022-11-10T09:56:36.851Z,13.79
2022-11-10T09:57:33.857Z,13.65
2022-11-10T09:58:39.637Z,13.73
2022-11-10T09:59:36.914Z,13.57
2022-11-10T10:00:35.709Z,14.08
2022-11-10T10:01:59.566Z,13.88
2022-11-10T10:03:04.125Z,13.82
2022-11-10T10:04:07.239Z,14.13
2022-11-10T10:05:30.218Z,14.04
2022-11-10T10:06:33.935Z,14.08
2022-11-10T10:07:52.194Z,13.79
2022-11-10T10:08:51.771Z,13.83
2022-11-10T10:10:17.662Z,13.20
2022-11-10T10:11:30.628Z,13.78
2022-11-10T10:12:58.352Z,13.79
2022-11-10T10:13:58.038Z,13.99
2022-11-10T10:14:57.336Z,14.37
2022-11-10T10:15:56.839Z,14.19
2022-11-10T10:17:01.105Z,13.88
2022-11-10T10:18:19.300Z,14.19
2022-11-10T10:19:28.317Z,13.34
2022-11-10T10:20:46.277Z,13.94
2022-11-10T10:21:45.716Z,13.74
2022-11-10T10:22:59.254Z,13.65
2022-11-10T10:24:10.400Z,13.71
2022-11-10T10:25:19.035Z,13.88
2022-11-10T10:26:20.030Z,13.88
2022-11-10T10:27:23.668Z,13.89
2022-11-10T10:28:23.737Z,14.14
2022-11-10T10:29:29.941Z,14.35
2022-11-10T10:30:30.192Z,13.82
2022-11-10T10:31:36.068Z,12.97
2022-11-10T10:32:32.838Z,13.88
2022-11-10T10:33:29.639Z,14.14
2022-11-10T10:34:30.239Z,14.19
2022-11-10T10:35:28.799Z,12.50
2022-11-10T10:36:29.796Z,14.40
2022-11-10T10:37:43.464Z,14.28
2022-11-10T10:38:41.199Z,14.31
2022-11-10T10:39:46.366Z,13.48
2022-11-10T10:40:48.782Z,13.87
2022-11-10T10:41:46.481Z,13.37
2022-11-10T10:42:43.217Z,13.90
2022-11-10T10:43:46.486Z,14.05
2022-11-10T10:45:21.467Z,13.90
2022-11-10T10:46:27.661Z,14.15
2022-11-10T10:47:37.785Z,14.16
2022-11-10T10:48:34.561Z,14.60
2022-11-10T10:49:36.809Z,13.82
2022-11-10T10:50:42.948Z,13.48
2022-11-10T10:51:39.907Z,14.23
2022-11-10T10:52:36.654Z,14.31
2022-11-10T10:53:33.356Z,14.40
2022-11-10T10:54:36.140Z,14.21
2022-11-10T10:55:34.907Z,13.88
2022-11-10T10:56:33.369Z,13.49
2022-11-10T10:57:30.168Z,14.36
2022-11-10T10:58:29.567Z,14.27
2022-11-10T10:59:27.058Z,14.25
2022-11-10T11:00:24.282Z,14.09
2022-11-10T11:01:37.625Z,14.30
2022-11-10T11:02:34.424Z,14.73
2022-11-10T11:03:45.851Z,14.49
2022-11-10T11:04:42.697Z,14.55
2022-11-10T11:05:39.484Z,14.80
2022-11-10T11:06:36.477Z,14.68
2022-11-10T11:07:33.348Z,13.99
2022-11-10T11:08:30.231Z,14.38
2022-11-10T11:09:30.170Z,14.32
2022-11-10T11:10:35.603Z,14.19
2022-11-10T11:11:40.643Z,13.81
2022-11-10T11:12:37.352Z,14.21
2022-11-10T11:13:34.571Z,14.41
2022-11-10T11:14:32.806Z,14.68
2022-11-10T11:15:30.468Z,14.64
2022-11-10T11:16:27.171Z,13.28
2022-11-10T11:17:23.874Z,13.94
2022-11-10T11:18:29.038Z,14.15
2022-11-10T11:19:33.966Z,14.64
2022-11-10T11:21:16.003Z,14.60
2022-11-10T11:22:41.744Z,14.77
2022-11-10T11:23:55.522Z,13.75
2022-11-10T11:25:20.389Z,14.93
2022-11-10T11:26:27.698Z,14.90
2022-11-10T11:27:42.175Z,14.96
2022-11-10T11:29:21.457Z,14.87
2022-11-10T11:30:19.491Z,14.98
2022-11-10T11:32:01.913Z,14.73
2022-11-10T11:33:13.064Z,14.83
2022-11-10T11:34:31.177Z,14.88
2022-11-10T11:35:37.665Z,15.18
2022-11-10T11:37:05.319Z,15.08
2022-11-10T11:38:24.440Z,15.16
2022-11-10T11:39:39.954Z,15.21
2022-11-10T11:40:58.310Z,15.17
2022-11-10T11:42:27.071Z,15.32
2022-11-10T11:43:38.842Z,15.32
2022-11-10T11:44:49.313Z,15.30
2022-11-10T11:46:15.191Z,15.37
2022-11-10T11:47:46.437Z,15.02
2022-11-10T11:49:07.311Z,15.47
2022-11-10T11:50:24.705Z,15.42
2022-11-10T11:51:53.040Z,14.63
2022-11-10T11:53:13.997Z,15.19
2022-11-10T11:54:38.411Z,15.32
2022-11-10T11:56:06.126Z,15.36
2022-11-10T11:57:23.301Z,15.70
2022-11-10T11:58:23.099Z,15.46
2022-11-10T11:59:34.890Z,15.75
2022-11-10T12:00:47.563Z,15.55
2022-11-10T12:01:56.394Z,15.47
2022-11-10T12:03:05.253Z,15.53
2022-11-10T12:04:07.600Z,15.60
2022-11-10T12:05:25.534Z,15.57
2022-11-10T12:06:25.082Z,15.56
2022-11-10T12:07:51.839Z,15.33
2022-11-10T12:08:54.596Z,15.76
2022-11-10T12:10:04.998Z,15.53
2022-11-10T12:11:10.655Z,15.57
2022-11-10T12:12:22.655Z,15.59
2022-11-10T12:13:36.905Z,15.60
2022-11-10T12:15:02.498Z,15.75
2022-11-10T12:16:21.798Z,15.78
2022-11-10T12:17:45.163Z,15.77
2022-11-10T12:19:02.028Z,15.70
2022-11-10T12:20:20.026Z,15.69
2022-11-10T12:21:54.581Z,15.65
2022-11-10T12:23:12.588Z,15.73
2022-11-10T12:24:35.461Z,15.68
2022-11-10T12:25:49.106Z,15.63
2022-11-10T12:26:59.874Z,15.61
2022-11-10T12:28:21.710Z,15.62
2022-11-10T12:29:40.690Z,15.78
2022-11-10T12:30:42.108Z,15.47
2022-11-10T12:31:43.725Z,14.92
2022-11-10T12:33:03.581Z,15.49
2022-11-10T12:34:10.773Z,15.48
2022-11-10T12:35:17.897Z,15.51
2022-11-10T12:36:20.284Z,15.80
2022-11-10T12:37:28.131Z,15.84
2022-11-10T12:38:41.034Z,15.79
2022-11-10T12:39:48.088Z,15.89
2022-11-10T12:40:52.871Z,15.81
2022-11-10T12:42:00.345Z,15.77
2022-11-10T12:43:03.054Z,15.61
2022-11-10T12:44:14.925Z,15.90
2022-11-10T12:45:21.933Z,15.75
2022-11-10T12:46:18.633Z,15.91
2022-11-10T12:47:20.525Z,15.46
2022-11-10T12:48:19.892Z,15.75
2022-11-10T12:49:23.353Z,15.60
2022-11-10T12:50:33.600Z,15.89
2022-11-10T12:51:58.048Z,15.67
2022-11-10T12:53:05.973Z,15.81
2022-11-10T12:54:02.818Z,15.80
2022-11-10T12:55:00.698Z,15.85
2022-11-10T12:56:23.550Z,16.09
2022-11-10T12:57:25.457Z,15.80
2022-11-10T12:58:22.951Z,15.70
2022-11-10T12:59:19.875Z,15.91
2022-11-10T13:00:22.521Z,15.88
2022-11-10T13:01:24.208Z,15.96
2022-11-10T13:02:26.510Z,15.92
2022-11-10T13:03:36.536Z,15.64
2022-11-10T13:04:34.158Z,15.88
2022-11-10T13:05:41.928Z,14.97
2022-11-10T13:06:51.585Z,15.78
2022-11-10T13:07:51.898Z,15.72
2022-11-10T13:08:50.187Z,15.66
2022-11-10T13:09:47.096Z,15.91
2022-11-10T13:10:54.538Z,15.42
2022-11-10T13:12:23.552Z,15.93
2022-11-10T13:13:21.942Z,16.03
2022-11-10T13:14:25.922Z,15.89
2022-11-10T13:15:44.288Z,15.82